Time;durP1;ratioP1;P1;durP2;ratioP2;P2;SDS_P1;SDS_P2;PMS_P1;PMS_P2;Temp;Humidity;BMP_temperature;BMP_pressure;BME280_temperature;BME280_humidity;BME280_pressure;Samples;Min_cycle;Max_cycle;Signal;HPM_P1;HPM_P2
2022/01/19 00:00:07;;;;;;;22.83;14.43;;;;;;;5.39;88.03;103315.06;5089770;28;20176;-71
2022/01/19 00:02:35;;;;;;;23.33;14.40;;;;;;;5.40;88.18;103316.88;5072311;28;20188;-70
2022/01/19 00:05:00;;;;;;;20.60;13.37;;;;;;;5.40;88.37;103299.09;5069607;28;20192;-70
2022/01/19 00:07:26;;;;;;;23.00;15.27;;;;;;;5.43;88.15;103298.44;5069599;28;20212;-71
2022/01/19 00:09:51;;;;;;;22.00;12.90;;;;;;;5.41;88.42;103302.50;5067893;28;20213;-70
2022/01/19 00:12:16;;;;;;;23.67;14.10;;;;;;;5.41;88.76;103297.41;5069532;28;20263;-70
2022/01/19 00:14:42;;;;;;;21.77;14.03;;;;;;;5.36;88.12;103299.63;5069487;28;20208;-70
2022/01/19 00:17:07;;;;;;;22.57;14.07;;;;;;;5.39;88.03;103296.44;5069545;28;20197;-70
2022/01/19 00:19:32;;;;;;;23.63;14.50;;;;;;;5.37;88.08;103300.47;5051022;28;20232;-71
2022/01/19 00:21:58;;;;;;;24.27;14.87;;;;;;;5.36;87.92;103304.69;5067825;28;20290;-70
2022/01/19 00:24:23;;;;;;;23.07;14.03;;;;;;;5.32;87.72;103297.59;5059029;28;20188;-71
2022/01/19 00:26:48;;;;;;;22.50;14.07;;;;;;;5.33;87.30;103295.91;5049293;28;20182;-71
2022/01/19 00:29:14;;;;;;;26.30;14.13;;;;;;;5.32;87.99;103296.69;5049169;28;20209;-72
2022/01/19 00:31:39;;;;;;;22.23;14.37;;;;;;;5.28;87.87;103280.34;5049316;28;20225;-71
2022/01/19 00:34:04;;;;;;;24.00;14.20;;;;;;;5.27;87.77;103268.41;5047959;28;20194;-70
2022/01/19 00:36:30;;;;;;;21.40;13.87;;;;;;;5.25;87.81;103261.44;5063116;28;20231;-70
2022/01/19 00:38:55;;;;;;;24.57;14.80;;;;;;;5.24;87.84;103252.00;5067860;28;20197;-70
2022/01/19 00:41:20;;;;;;;23.50;13.20;;;;;;;5.19;87.85;103250.75;5068292;28;20248;-70
2022/01/19 00:43:46;;;;;;;22.93;14.37;;;;;;;5.19;87.87;103250.75;5066064;28;20188;-70
2022/01/19 00:46:11;;;;;;;22.10;13.97;;;;;;;5.16;87.94;103251.41;5060541;28;20264;-71
2022/01/19 00:48:36;;;;;;;28.47;15.97;;;;;;;5.18;87.58;103254.06;5061353;28;20222;-70
2022/01/19 00:51:02;;;;;;;25.00;14.00;;;;;;;5.13;87.50;103262.97;5060147;28;20221;-71
2022/01/19 00:53:28;;;;;;;25.03;14.87;;;;;;;5.12;87.77;103259.56;5055858;28;20662;-71
2022/01/19 00:55:56;;;;;;;24.73;13.70;;;;;;;5.14;87.72;103259.66;5064146;28;20330;-72
2022/01/19 00:58:21;;;;;;;25.60;15.13;;;;;;;5.13;88.05;103263.88;5062948;28;20666;-70
2022/01/19 01:00:47;;;;;;;24.57;14.83;;;;;;;5.11;87.95;103257.78;5066166;28;20244;-70
2022/01/19 01:03:12;;;;;;;24.20;14.20;;;;;;;5.11;88.45;103255.25;5058822;28;20666;-71
2022/01/19 01:05:38;;;;;;;24.23;13.97;;;;;;;5.12;88.20;103264.66;5061085;28;20193;-70
2022/01/19 01:08:04;;;;;;;24.83;15.23;;;;;;;5.10;88.51;103255.09;5066200;28;20206;-70
2022/01/19 01:10:30;;;;;;;27.40;15.77;;;;;;;5.09;88.30;103254.25;5059364;28;20228;-70
2022/01/19 01:13:06;;;;;;;27.13;15.03;;;;;;;5.08;88.64;103261.72;5061878;28;20663;-71
2022/01/19 01:15:48;;;;;;;26.93;14.13;;;;;;;5.08;88.75;103257.56;5058367;28;20192;-70
2022/01/19 01:18:20;;;;;;;27.70;15.27;;;;;;;5.11;88.83;103256.91;5058109;28;20209;-70
2022/01/19 01:20:52;;;;;;;26.10;14.57;;;;;;;5.07;88.35;103245.59;5060182;28;20208;-72
2022/01/19 01:23:21;;;;;;;24.00;14.60;;;;;;;5.09;88.66;103260.97;5057168;28;20619;-71
2022/01/19 01:25:47;;;;;;;26.10;14.40;;;;;;;5.05;89.04;103253.84;5067388;28;20239;-70
2022/01/19 01:28:13;;;;;;;21.77;13.47;;;;;;;5.04;88.59;103244.47;5058346;28;20206;-70
2022/01/19 01:30:40;;;;;;;25.13;15.00;;;;;;;5.04;88.36;103244.47;5060097;28;20553;-71
2022/01/19 01:33:06;;;;;;;24.33;14.10;;;;;;;5.01;88.65;103229.88;5062972;28;20181;-71
2022/01/19 01:35:32;;;;;;;24.27;13.33;;;;;;;4.99;88.35;103221.28;5062521;28;20188;-70
2022/01/19 01:37:58;;;;;;;23.93;14.23;;;;;;;4.97;88.90;103215.19;5055440;28;20206;-70
2022/01/19 01:40:25;;;;;;;23.90;13.77;;;;;;;4.99;88.89;103207.69;5068465;28;20718;-71
2022/01/19 01:42:55;;;;;;;25.47;14.17;;;;;;;4.93;88.58;103197.94;5054812;28;20250;-72
2022/01/19 01:45:31;;;;;;;28.60;14.60;;;;;;;4.95;89.10;103195.50;5061455;28;20188;-71
2022/01/19 01:48:12;;;;;;;26.00;15.20;;;;;;;4.93;88.24;103184.38;5055056;28;20212;-71
2022/01/19 01:53:32;;;;;;;25.37;15.03;;;;;;;4.91;88.31;103146.16;5064693;28;20197;-72
2022/01/19 01:56:03;;;;;;;27.77;15.10;;;;;;;4.87;88.37;103136.53;5057182;28;20200;-71
2022/01/19 01:58:31;;;;;;;26.73;15.17;;;;;;;4.87;88.29;103126.38;5059354;28;20233;-71
2022/01/19 02:01:19;;;;;;;29.57;15.33;;;;;;;4.88;88.51;103117.13;5058103;28;20182;-71
2022/01/19 02:03:45;;;;;;;27.93;15.20;;;;;;;4.86;88.69;103108.50;5066679;28;20824;-72
2022/01/19 02:08:57;;;;;;;26.70;14.67;;;;;;;4.86;88.79;103133.88;5053929;28;20700;-70
2022/01/19 02:15:49;;;;;;;29.03;15.87;;;;;;;4.83;88.93;103126.91;5056973;28;20278;-70
2022/01/19 02:23:05;;;;;;;26.87;14.47;;;;;;;4.78;88.83;103099.41;5062471;28;20196;-70
2022/01/19 02:25:36;;;;;;;26.40;13.63;;;;;;;4.68;88.36;103101.97;5066363;28;20650;-69
2022/01/19 02:41:36;;;;;;;25.93;14.80;;;;;;;4.65;89.03;103051.88;5062300;28;20654;-71
2022/01/19 02:44:02;;;;;;;28.80;15.20;;;;;;;4.68;89.02;103041.97;5052377;28;20185;-71
2022/01/19 02:46:53;;;;;;;27.67;14.30;;;;;;;4.62;88.90;103030.47;5057098;28;20605;-70
2022/01/19 02:49:20;;;;;;;27.70;14.23;;;;;;;4.58;88.51;103016.66;5059524;28;20184;-70
2022/01/19 02:51:52;;;;;;;33.23;16.53;;;;;;;4.58;88.86;103011.59;5059760;28;20580;-70
2022/01/19 02:54:23;;;;;;;28.60;13.87;;;;;;;4.57;89.23;102999.69;5059587;28;20208;-71
2022/01/19 02:56:52;;;;;;;25.23;13.43;;;;;;;4.55;89.64;102991.06;5058306;28;20303;-70
2022/01/19 02:59:26;;;;;;;25.67;13.93;;;;;;;4.54;89.93;102996.00;5033827;28;20297;-71
2022/01/19 03:10:04;;;;;;;31.20;14.90;;;;;;;4.56;89.86;102987.75;5058962;28;20209;-70
2022/01/19 03:12:29;;;;;;;29.20;13.57;;;;;;;4.52;89.87;102985.72;5054885;28;20190;-70
2022/01/19 03:14:55;;;;;;;28.83;14.23;;;;;;;4.50;90.01;102967.00;5050886;28;20358;-71
2022/01/19 03:17:20;;;;;;;32.37;14.87;;;;;;;4.47;89.80;102948.97;5044613;28;20217;-71
2022/01/19 03:19:46;;;;;;;27.33;13.10;;;;;;;4.42;90.09;102930.00;5051287;28;20204;-70
2022/01/19 03:22:13;;;;;;;26.97;13.80;;;;;;;4.42;89.80;102917.31;5055831;28;20260;-71
2022/01/19 03:24:39;;;;;;;32.70;13.43;;;;;;;4.44;89.83;102918.34;5057608;28;20280;-70
2022/01/19 03:27:05;;;;;;;31.20;14.30;;;;;;;4.37;89.97;102921.16;5056410;28;20182;-69
2022/01/19 03:29:38;;;;;;;30.07;14.50;;;;;;;4.42;90.50;102926.59;5064845;28;20190;-70
2022/01/19 03:32:04;;;;;;;29.03;13.90;;;;;;;4.35;90.57;102932.84;5061897;28;20185;-70
2022/01/19 03:34:29;;;;;;;26.27;13.70;;;;;;;4.32;90.25;102919.91;5057838;28;20658;-71
2022/01/19 03:37:00;;;;;;;32.67;13.67;;;;;;;4.28;90.38;102922.13;5058928;28;20658;-70
2022/01/19 03:39:25;;;;;;;27.23;13.30;;;;;;;4.27;90.62;102900.94;5052193;28;20185;-70
2022/01/19 03:41:50;;;;;;;29.33;13.20;;;;;;;4.28;90.44;102891.69;5062599;28;20189;-70
2022/01/19 03:44:16;;;;;;;27.73;13.37;;;;;;;4.27;90.49;102884.81;5068968;28;20188;-71
2022/01/19 03:46:59;;;;;;;24.47;12.20;;;;;;;4.26;90.89;102876.34;5056105;28;20741;-70
2022/01/19 03:49:26;;;;;;;27.23;13.53;;;;;;;4.23;91.20;102867.63;5058611;28;20196;-70
2022/01/19 03:52:00;;;;;;;27.93;12.83;;;;;;;4.20;90.65;102875.00;5056988;28;20221;-70
2022/01/19 03:54:30;;;;;;;32.00;14.80;;;;;;;4.20;90.96;102859.78;5060103;28;20228;-71
2022/01/19 03:56:55;;;;;;;26.33;13.00;;;;;;;4.20;90.80;102857.25;5059306;28;20184;-70
2022/01/19 03:59:21;;;;;;;29.10;13.47;;;;;;;4.22;90.98;102871.81;5065142;28;20210;-70
2022/01/19 04:01:46;;;;;;;28.70;14.17;;;;;;;4.18;91.11;102867.28;5047282;28;20185;-70
2022/01/19 04:07:00;;;;;;;26.67;13.10;;;;;;;4.16;91.20;102843.47;5058040;28;20201;-70
2022/01/19 04:09:28;;;;;;;29.43;12.80;;;;;;;4.12;91.48;102846.53;5057282;28;20189;-70
2022/01/19 04:11:54;;;;;;;28.07;13.97;;;;;;;4.11;91.57;102843.88;5058033;28;20231;-70
2022/01/19 04:14:22;;;;;;;28.17;14.03;;;;;;;4.09;91.22;102836.16;5055427;28;20651;-70
2022/01/19 04:16:50;;;;;;;27.77;14.17;;;;;;;4.10;91.02;102832.84;5064552;28;20677;-71
2022/01/19 04:19:34;;;;;;;29.43;13.60;;;;;;;4.11;91.22;102829.56;5064740;28;20606;-70
2022/01/19 04:22:04;;;;;;;33.77;13.97;;;;;;;4.07;91.71;102821.59;5079123;28;20729;-71
2022/01/19 04:24:32;;;;;;;30.57;14.20;;;;;;;4.07;91.58;102826.66;5058211;28;20240;-69
2022/01/19 04:27:32;;;;;;;31.40;13.93;;;;;;;4.11;91.41;102821.06;5055899;28;20675;-70
2022/01/19 04:30:12;;;;;;;32.70;14.33;;;;;;;4.06;91.99;102807.16;5057453;28;20689;-70
2022/01/19 04:35:27;;;;;;;32.73;15.63;;;;;;;4.06;91.72;102815.66;5055173;28;20563;-70
2022/01/19 04:38:28;;;;;;;33.67;15.70;;;;;;;4.06;91.97;102813.13;5052586;28;20326;-70
2022/01/19 04:44:11;;;;;;;28.27;14.83;;;;;;;4.03;91.62;102806.91;5059404;28;20197;-70
2022/01/19 04:54:08;;;;;;;33.63;15.43;;;;;;;4.00;92.17;102804.16;5048956;28;20709;-70
2022/01/19 05:05:30;;;;;;;33.47;16.63;;;;;;;4.02;92.16;102775.63;5065555;28;20629;-71
2022/01/19 05:08:09;;;;;;;29.40;15.27;;;;;;;4.01;92.20;102778.03;5073047;28;20690;-71
2022/01/19 05:13:33;;;;;;;27.83;15.00;;;;;;;3.99;91.86;102764.34;5060147;28;20207;-70
2022/01/19 05:15:58;;;;;;;27.70;15.73;;;;;;;4.00;92.12;102761.09;5043468;28;20234;-70
2022/01/19 05:18:24;;;;;;;26.83;15.33;;;;;;;3.98;92.11;102763.50;5053064;28;20626;-70
2022/01/19 05:20:49;;;;;;;34.83;16.90;;;;;;;4.00;92.48;102766.16;5064009;28;20223;-71
2022/01/19 05:23:37;;;;;;;29.30;16.07;;;;;;;3.99;92.44;102757.66;5057200;28;20281;-71
2022/01/19 05:26:03;;;;;;;30.87;15.57;;;;;;;3.97;92.39;102759.19;5066203;28;20293;-71
2022/01/19 05:28:38;;;;;;;30.43;15.83;;;;;;;3.97;91.78;102756.66;5042604;28;20301;-70
2022/01/19 05:31:03;;;;;;;33.00;16.50;;;;;;;4.01;91.54;102756.09;5062946;28;20324;-71
2022/01/19 05:33:29;;;;;;;33.47;16.67;;;;;;;4.01;92.29;102752.72;5061259;28;20742;-71
2022/01/19 05:35:54;;;;;;;29.03;16.00;;;;;;;3.94;91.94;102758.97;5069630;28;20853;-70
2022/01/19 05:38:38;;;;;;;29.47;15.80;;;;;;;3.96;92.05;102743.88;5055445;28;20217;-69
2022/01/19 05:41:15;;;;;;;31.37;16.50;;;;;;;3.92;92.29;102735.13;5042588;28;20181;-70
2022/01/19 05:43:41;;;;;;;35.23;15.97;;;;;;;3.96;92.18;102729.53;5057546;28;20188;-69
2022/01/19 05:46:07;;;;;;;29.33;16.17;;;;;;;3.97;92.14;102723.72;5070194;28;20188;-69
2022/01/19 05:48:34;;;;;;;32.83;16.43;;;;;;;3.97;92.07;102718.66;5065446;28;20583;-70
2022/01/19 05:51:00;;;;;;;26.63;15.27;;;;;;;3.95;91.88;102715.09;5057735;28;20210;-70
2022/01/19 05:53:28;;;;;;;31.27;16.43;;;;;;;3.97;92.26;102700.03;5055583;28;20185;-70
2022/01/19 05:55:54;;;;;;;30.30;16.23;;;;;;;3.98;92.23;102695.09;5054150;28;20540;-69
2022/01/19 05:58:19;;;;;;;30.70;17.20;;;;;;;3.97;92.02;102693.31;5070436;28;20274;-69
2022/01/19 06:00:48;;;;;;;35.27;16.43;;;;;;;3.97;92.05;102688.25;5070763;28;20204;-69
2022/01/19 06:03:13;;;;;;;34.63;16.43;;;;;;;4.00;91.68;102675.78;5070487;28;20535;-69
2022/01/19 06:05:59;;;;;;;29.50;16.43;;;;;;;4.00;92.23;102665.66;5070182;28;20173;-71
2022/01/19 06:08:43;;;;;;;33.00;17.13;;;;;;;4.00;92.24;102669.88;5070075;28;20212;-70
2022/01/19 06:11:11;;;;;;;34.27;18.03;;;;;;;4.03;92.16;102670.06;5070372;28;20201;-70
2022/01/19 06:13:38;;;;;;;29.13;16.20;;;;;;;4.02;92.16;102670.84;5070262;28;20239;-71
2022/01/19 06:16:04;;;;;;;32.60;18.20;;;;;;;4.04;92.25;102672.72;5070154;28;20189;-70
2022/01/19 06:18:30;;;;;;;36.27;17.30;;;;;;;4.05;92.45;102671.09;5069821;28;20215;-71
2022/01/19 06:20:56;;;;;;;34.43;18.00;;;;;;;4.07;92.36;102667.00;5070260;28;20209;-70
2022/01/19 06:23:30;;;;;;;34.87;18.37;;;;;;;4.05;92.00;102653.34;5070080;28;20181;-70
2022/01/19 06:26:00;;;;;;;36.87;18.13;;;;;;;4.06;92.30;102650.03;5070063;28;20177;-70
2022/01/19 06:28:26;;;;;;;34.57;18.30;;;;;;;4.03;92.12;102642.19;5069839;28;20213;-70
2022/01/19 06:30:51;;;;;;;37.60;18.90;;;;;;;4.05;92.51;102645.75;5069846;28;20276;-69
2022/01/19 06:33:16;;;;;;;41.40;20.10;;;;;;;4.05;92.46;102641.53;5069726;28;20204;-71
2022/01/19 06:35:42;;;;;;;42.80;19.67;;;;;;;4.07;92.61;102639.13;5069819;28;20189;-70
2022/01/19 06:38:21;;;;;;;38.97;20.03;;;;;;;4.07;92.25;102639.13;5070870;28;20209;-70
2022/01/19 06:40:54;;;;;;;40.70;19.60;;;;;;;4.07;92.13;102627.34;5069903;28;20238;-70
2022/01/19 06:43:19;;;;;;;36.83;19.93;;;;;;;4.07;92.78;102617.22;5062566;28;20185;-69
2022/01/19 06:45:45;;;;;;;38.33;20.07;;;;;;;4.08;92.44;102621.50;5035507;28;20194;-69
2022/01/19 06:48:10;;;;;;;39.23;19.50;;;;;;;4.07;92.07;102613.78;5050624;28;20248;-70
2022/01/19 06:50:36;;;;;;;40.27;20.57;;;;;;;4.08;92.33;102607.94;5065433;28;20221;-70
2022/01/19 06:53:01;;;;;;;41.87;20.63;;;;;;;4.09;92.82;102605.50;5069487;28;20225;-70
2022/01/19 06:55:29;;;;;;;41.20;20.70;;;;;;;4.12;92.52;102615.00;5069517;28;20177;-68
2022/01/19 06:57:55;;;;;;;40.97;21.10;;;;;;;4.11;92.49;102611.59;5069308;28;20220;-68
2022/01/19 07:00:41;;;;;;;40.60;22.20;;;;;;;4.11;92.39;102598.03;5038839;28;20239;-71
2022/01/19 07:03:12;;;;;;;42.27;20.77;;;;;;;4.11;92.24;102595.50;5069419;28;20185;-71
2022/01/19 07:05:45;;;;;;;41.67;22.00;;;;;;;4.12;91.94;102589.66;5070615;28;20581;-71
2022/01/19 07:08:29;;;;;;;45.13;21.27;;;;;;;4.15;92.38;102590.75;5070807;28;20211;-72
2022/01/19 07:10:55;;;;;;;40.87;21.10;;;;;;;4.16;92.39;102584.03;5069454;28;20599;-69
2022/01/19 07:13:21;;;;;;;42.63;21.03;;;;;;;4.15;92.42;102580.59;5069197;28;20177;-71
2022/01/19 07:15:47;;;;;;;44.47;21.90;;;;;;;4.16;92.57;102577.34;5069262;28;20254;-68
2022/01/19 07:18:12;;;;;;;45.90;20.63;;;;;;;4.17;92.11;102575.66;5068842;28;20200;-71
2022/01/19 07:20:38;;;;;;;40.23;21.53;;;;;;;4.15;91.64;102565.41;5069074;28;20217;-71
2022/01/19 07:23:04;;;;;;;41.67;21.10;;;;;;;4.14;92.57;102562.78;5068796;28;20571;-72
2022/01/19 07:25:30;;;;;;;38.53;20.87;;;;;;;4.12;91.94;102559.25;5068787;28;20274;-71
2022/01/19 07:27:56;;;;;;;41.97;22.23;;;;;;;4.12;92.24;102559.25;5068652;28;20236;-73
2022/01/19 07:30:22;;;;;;;40.07;21.50;;;;;;;4.06;92.26;102554.63;5068623;28;20263;-71
2022/01/19 07:32:50;;;;;;;42.97;22.40;;;;;;;4.01;92.35;102555.06;5068767;28;20318;-70
2022/01/19 07:35:16;;;;;;;43.23;22.30;;;;;;;4.01;92.09;102550.84;5068608;28;20678;-70
2022/01/19 07:37:42;;;;;;;42.27;22.27;;;;;;;3.97;92.14;102553.97;5068518;28;20242;-70
2022/01/19 07:40:09;;;;;;;40.60;22.17;;;;;;;3.96;92.14;102549.63;5068273;28;20196;-71
2022/01/19 07:42:35;;;;;;;43.53;21.97;;;;;;;3.95;92.49;102550.41;5067751;28;20925;-72
2022/01/19 07:45:04;;;;;;;45.90;22.97;;;;;;;3.92;92.63;102539.19;5056292;28;20227;-71
2022/01/19 07:47:43;;;;;;;52.37;23.50;;;;;;;3.90;92.20;102538.19;5068534;28;20212;-71
2022/01/19 07:50:09;;;;;;;45.37;23.30;;;;;;;3.92;92.37;102526.53;5069595;28;20363;-70
2022/01/19 07:53:07;;;;;;;45.50;21.73;;;;;;;4.00;91.54;102527.97;5058805;28;20280;-71
2022/01/19 07:55:51;;;;;;;44.47;22.60;;;;;;;4.02;91.48;102522.22;5069849;28;20539;-71
2022/01/19 07:58:52;;;;;;;46.93;21.27;;;;;;;4.00;91.59;102517.81;5042798;28;20869;-71
2022/01/19 08:01:22;;;;;;;38.90;22.40;;;;;;;4.00;91.90;102515.28;5048274;28;20186;-72
2022/01/19 08:04:25;;;;;;;38.13;21.63;;;;;;;4.02;91.84;102517.16;4987725;28;20692;-71
2022/01/19 08:06:54;;;;;;;47.23;22.27;;;;;;;4.05;91.55;102507.22;4987925;28;20187;-73
2022/01/19 08:09:21;;;;;;;48.80;24.33;;;;;;;4.09;91.87;102501.63;5022729;28;20194;-71
2022/01/19 08:11:46;;;;;;;44.80;23.70;;;;;;;4.14;91.80;102497.75;5048303;28;20701;-70
2022/01/19 08:14:24;;;;;;;47.93;24.83;;;;;;;4.15;91.86;102491.91;5054249;28;20772;-72
2022/01/19 08:16:54;;;;;;;44.10;25.07;;;;;;;4.18;91.37;102483.66;5066230;28;20280;-71
2022/01/19 08:19:20;;;;;;;44.87;23.43;;;;;;;4.21;91.46;102479.69;5063144;28;20215;-72
2022/01/19 08:21:46;;;;;;;48.37;23.73;;;;;;;4.21;91.49;102469.53;5058835;28;20354;-72
2022/01/19 08:24:11;;;;;;;51.77;25.93;;;;;;;4.27;91.47;102466.53;5049773;28;20273;-72
2022/01/19 08:26:36;;;;;;;53.60;25.40;;;;;;;4.20;91.95;102466.91;5066211;28;20576;-72
2022/01/19 08:29:06;;;;;;;57.03;27.57;;;;;;;4.27;92.50;102472.50;5068588;28;20200;-74
2022/01/19 08:31:33;;;;;;;51.07;26.60;;;;;;;4.32;91.77;102470.31;5051254;28;20216;-71
2022/01/19 08:34:07;;;;;;;55.13;27.00;;;;;;;4.25;91.79;102465.56;5069474;28;20232;-71
2022/01/19 08:36:51;;;;;;;48.53;27.30;;;;;;;4.28;91.85;102461.59;5069253;28;20216;-72
2022/01/19 08:39:19;;;;;;;53.17;25.80;;;;;;;4.27;91.61;102451.34;5067848;28;20570;-71
2022/01/19 08:41:46;;;;;;;51.83;26.40;;;;;;;4.26;91.54;102449.56;5068165;28;20177;-73
2022/01/19 08:44:12;;;;;;;55.20;27.60;;;;;;;4.28;91.79;102448.06;5068179;28;20692;-72
2022/01/19 08:46:40;;;;;;;51.00;28.07;;;;;;;4.27;91.26;102448.78;5068117;28;20185;-71
2022/01/19 08:49:43;;;;;;;55.90;28.00;;;;;;;4.19;91.49;102447.41;5068959;28;20209;-72
2022/01/19 08:52:38;;;;;;;53.83;27.20;;;;;;;4.22;91.78;102438.34;5060368;28;20197;-73
2022/01/19 08:55:13;;;;;;;59.57;28.47;;;;;;;4.20;91.87;102437.38;5068060;28;20230;-73
2022/01/19 08:57:39;;;;;;;56.63;28.80;;;;;;;4.17;92.21;102421.06;5067944;28;20205;-72
2022/01/19 09:00:08;;;;;;;60.87;27.93;;;;;;;4.18;92.13;102417.78;5069129;28;20187;-72
2022/01/19 09:02:33;;;;;;;62.57;27.80;;;;;;;4.13;92.31;102416.53;5069154;28;20647;-71
2022/01/19 09:04:59;;;;;;;57.10;27.67;;;;;;;4.15;91.73;102408.25;5069127;28;20242;-72
2022/01/19 09:07:24;;;;;;;63.60;26.63;;;;;;;4.18;92.05;102405.09;5072956;28;20208;-73
2022/01/19 09:09:49;;;;;;;60.93;26.43;;;;;;;4.18;91.62;102403.41;5072786;28;20185;-72
2022/01/19 09:12:15;;;;;;;59.00;27.40;;;;;;;4.20;91.79;102388.31;5072916;28;20271;-73
2022/01/19 09:14:40;;;;;;;58.30;26.67;;;;;;;4.20;91.29;102388.31;5071491;28;20275;-72
2022/01/19 09:17:08;;;;;;;53.87;25.10;;;;;;;4.22;91.27;102381.69;5058185;28;20200;-73
2022/01/19 09:19:36;;;;;;;58.10;24.93;;;;;;;4.24;91.09;102380.16;5052485;28;20197;-71
2022/01/19 09:22:03;;;;;;;54.07;24.43;;;;;;;4.24;91.01;102390.31;5054578;28;20226;-73
2022/01/19 09:24:29;;;;;;;50.53;23.90;;;;;;;4.29;91.08;102384.78;5071269;28;20189;-71
2022/01/19 09:26:54;;;;;;;51.37;23.87;;;;;;;4.29;90.83;102382.25;5071236;28;20189;-72
2022/01/19 09:29:20;;;;;;;56.23;23.27;;;;;;;4.22;90.34;102374.97;5072257;28;20188;-73
2022/01/19 09:31:45;;;;;;;53.67;21.73;;;;;;;4.27;90.74;102380.34;5071069;28;20778;-72
2022/01/19 09:34:14;;;;;;;46.73;23.13;;;;;;;4.25;89.91;102367.59;5051026;28;20840;-72
2022/01/19 09:36:44;;;;;;;46.87;22.27;;;;;;;4.24;90.54;102364.97;5063881;28;20185;-71
2022/01/19 09:39:11;;;;;;;53.20;23.70;;;;;;;4.23;90.65;102361.53;5071531;28;20209;-70
2022/01/19 09:41:37;;;;;;;48.57;23.60;;;;;;;4.21;90.57;102365.63;5070700;28;20189;-72
2022/01/19 09:44:03;;;;;;;46.37;22.20;;;;;;;4.25;90.46;102354.94;5072112;28;20270;-72
2022/01/19 09:46:29;;;;;;;59.93;26.47;;;;;;;4.27;90.27;102350.81;5071808;28;20188;-72
2022/01/19 09:48:55;;;;;;;48.97;24.00;;;;;;;4.29;90.17;102350.94;5071834;28;20301;-72
2022/01/19 09:51:20;;;;;;;50.63;22.70;;;;;;;4.29;90.11;102351.84;5063062;28;20236;-72
2022/01/19 09:53:46;;;;;;;52.00;25.33;;;;;;;4.24;90.49;102345.53;5069379;28;20189;-73
2022/01/19 09:56:14;;;;;;;47.90;23.83;;;;;;;4.31;90.28;102337.59;5071348;28;20189;-73
2022/01/19 09:58:39;;;;;;;56.60;25.10;;;;;;;4.27;90.10;102335.63;5071708;28;20209;-72
2022/01/19 10:01:04;;;;;;;62.33;26.10;;;;;;;4.29;90.51;102323.06;5071829;28;20199;-71
2022/01/19 10:03:32;;;;;;;52.40;25.23;;;;;;;4.29;90.27;102318.88;5071809;28;20567;-72
2022/01/19 10:06:05;;;;;;;51.43;25.13;;;;;;;4.36;89.97;102320.13;5071669;28;20200;-70
2022/01/19 10:08:36;;;;;;;53.90;25.00;;;;;;;4.43;89.75;102308.00;5071196;28;20208;-71
2022/01/19 10:11:26;;;;;;;53.97;26.70;;;;;;;4.41;89.54;102301.94;5071461;28;20259;-71
2022/01/19 10:17:01;;;;;;;57.80;26.87;;;;;;;4.45;89.03;102300.47;5053439;28;20193;-71
2022/01/19 10:19:37;;;;;;;62.00;28.43;;;;;;;4.40;89.69;102295.13;5051060;28;20201;-70
2022/01/19 10:22:06;;;;;;;58.03;27.17;;;;;;;4.37;89.69;102288.97;5050029;28;20779;-70
2022/01/19 10:24:32;;;;;;;55.50;27.70;;;;;;;4.42;89.20;102287.63;5051186;28;20555;-72
2022/01/19 10:27:36;;;;;;;55.30;27.27;;;;;;;4.48;89.46;102270.25;5049861;28;20198;-72
2022/01/19 10:30:04;;;;;;;61.77;28.37;;;;;;;4.58;89.08;102265.91;5065866;28;20311;-71
2022/01/19 10:32:33;;;;;;;61.93;29.00;;;;;;;4.54;88.99;102263.06;5069807;28;20270;-70
2022/01/19 10:35:27;;;;;;;57.53;28.53;;;;;;;4.49;88.84;102264.41;5057178;28;20259;-71
2022/01/19 10:38:13;;;;;;;54.37;27.30;;;;;;;4.53;89.12;102263.84;5070832;28;20232;-73
2022/01/19 10:40:40;;;;;;;53.70;27.40;;;;;;;4.52;88.86;102257.88;5071102;28;20638;-72
2022/01/19 10:43:28;;;;;;;53.60;27.87;;;;;;;4.47;89.22;102246.56;5069731;28;20185;-70
2022/01/19 10:45:54;;;;;;;57.53;27.87;;;;;;;4.44;89.13;102248.91;5069624;28;20288;-71
2022/01/19 10:48:38;;;;;;;54.13;27.13;;;;;;;4.48;89.31;102242.38;5052797;28;20225;-71
2022/01/19 10:51:09;;;;;;;49.97;25.97;;;;;;;4.45;89.03;102232.91;5070881;28;20308;-71
2022/01/19 10:53:34;;;;;;;48.50;23.03;;;;;;;4.44;88.90;102236.22;5070979;28;20176;-71
2022/01/19 10:56:05;;;;;;;45.27;24.57;;;;;;;4.42;88.71;102224.22;5069358;28;20185;-71
2022/01/19 10:58:30;;;;;;;36.37;19.80;;;;;;;4.41;88.60;102224.97;5070264;28;20283;-71
2022/01/19 11:00:56;;;;;;;49.40;24.47;;;;;;;4.39;88.71;102211.34;5069303;28;20219;-72
2022/01/19 11:03:27;;;;;;;46.27;22.90;;;;;;;4.31;88.01;102212.47;5069341;28;20239;-72
2022/01/19 11:05:58;;;;;;;41.77;21.50;;;;;;;4.35;88.27;102209.38;5069101;28;20205;-72
2022/01/19 11:08:25;;;;;;;44.67;22.27;;;;;;;4.28;88.20;102205.56;5069117;28;20209;-71
2022/01/19 11:10:53;;;;;;;40.33;21.97;;;;;;;4.27;88.16;102207.97;5069076;28;20678;-72
2022/01/19 11:13:31;;;;;;;36.43;22.73;;;;;;;4.26;88.40;102207.13;5070012;28;20219;-72
2022/01/19 11:15:58;;;;;;;37.47;22.33;;;;;;;4.22;88.50;102207.69;5065629;28;20193;-72
2022/01/19 11:18:29;;;;;;;45.00;24.17;;;;;;;4.25;88.22;102192.72;5069967;28;20242;-72
2022/01/19 11:20:57;;;;;;;37.83;20.73;;;;;;;4.14;88.15;102188.56;5070109;28;20176;-72
2022/01/19 11:23:33;;;;;;;39.00;22.17;;;;;;;4.18;88.00;102177.84;5070159;28;20264;-73
2022/01/19 11:26:09;;;;;;;33.57;19.77;;;;;;;4.10;88.24;102176.47;5068760;28;20191;-72
2022/01/19 11:28:38;;;;;;;37.47;21.90;;;;;;;4.06;87.79;102168.56;5069096;28;20296;-72
2022/01/19 11:31:07;;;;;;;37.77;21.07;;;;;;;4.04;88.46;102163.41;5069698;28;20212;-72
2022/01/19 11:33:51;;;;;;;33.53;19.83;;;;;;;4.04;87.73;102153.25;5069984;28;20248;-72
2022/01/19 11:36:24;;;;;;;38.20;20.37;;;;;;;4.00;88.11;102169.03;5048636;28;20290;-71
2022/01/19 11:38:52;;;;;;;30.80;18.67;;;;;;;3.91;87.25;102154.91;5069486;28;20738;-71
2022/01/19 11:41:17;;;;;;;33.33;20.57;;;;;;;3.96;87.67;102158.63;5069868;28;20217;-72
2022/01/19 11:43:52;;;;;;;33.07;21.37;;;;;;;3.96;87.14;102148.47;5069847;28;20643;-72
2022/01/19 11:46:27;;;;;;;39.27;22.43;;;;;;;3.93;87.94;102144.09;5069621;28;20211;-71
2022/01/19 11:48:52;;;;;;;38.87;22.67;;;;;;;3.92;87.64;102146.50;5068196;28;20300;-71
2022/01/19 11:51:23;;;;;;;35.63;21.53;;;;;;;3.95;87.50;102129.00;5068338;28;20209;-71
2022/01/19 11:53:59;;;;;;;32.67;20.53;;;;;;;3.96;87.54;102123.16;5069794;28;20213;-72
2022/01/19 11:56:24;;;;;;;39.27;22.13;;;;;;;3.93;87.48;102111.16;5069779;28;20709;-71
2022/01/19 11:59:08;;;;;;;39.13;23.03;;;;;;;3.88;87.76;102092.25;5068270;28;20275;-72
2022/01/19 12:01:36;;;;;;;37.73;23.73;;;;;;;3.90;88.39;102080.53;5068346;28;20184;-72
2022/01/19 12:04:20;;;;;;;40.47;23.77;;;;;;;3.89;88.45;102073.72;5069643;28;20193;-72
2022/01/19 12:06:47;;;;;;;38.03;23.87;;;;;;;3.94;88.43;102068.94;5069530;28;20200;-72
2022/01/19 12:09:14;;;;;;;39.53;24.17;;;;;;;3.90;88.17;102049.25;5069234;28;20201;-71
2022/01/19 12:11:49;;;;;;;41.67;23.77;;;;;;;3.82;88.43;102046.22;5069297;28;20217;-71
2022/01/19 12:14:21;;;;;;;43.27;24.53;;;;;;;3.84;88.60;102029.50;5056261;28;20327;-71
2022/01/19 12:17:03;;;;;;;38.63;24.17;;;;;;;3.82;88.44;102020.91;5067070;28;20289;-71
2022/01/19 12:19:38;;;;;;;42.10;26.10;;;;;;;3.84;88.67;102011.75;5069191;28;20197;-72
2022/01/19 12:22:08;;;;;;;47.23;26.60;;;;;;;4.20;89.83;101998.03;5068171;28;20532;-74
2022/01/19 12:24:42;;;;;;;45.87;25.33;;;;;;;4.37;89.33;101994.91;5069411;28;20204;-75
2022/01/19 12:27:24;;;;;;;44.87;25.30;;;;;;;4.26;88.31;102009.41;5069238;28;20197;-74
2022/01/19 12:29:58;;;;;;;42.87;24.77;;;;;;;4.28;87.79;101996.84;5064066;28;20216;-75
2022/01/19 12:32:26;;;;;;;38.03;25.03;;;;;;;4.29;87.97;101976.69;5069302;28;20208;-76
2022/01/19 12:34:56;;;;;;;42.80;24.90;;;;;;;4.31;88.08;101977.63;5047967;28;20523;-75
2022/01/19 12:37:24;;;;;;;43.10;24.37;;;;;;;4.18;88.19;101969.19;5075951;28;20240;-72